Time;durP1;ratioP1;P1;durP2;ratioP2;P2;SDS_P1;SDS_P2;PMS_P1;PMS_P2;Temp;Humidity;BMP_temperature;BMP_pressure;BME280_temperature;BME280_humidity;BME280_pressure;Samples;Min_cycle;Max_cycle;Signal;HPM_P1;HPM_P2
2023/08/15 00:01:15;;;;;;;26.77;10.10;;;20.70;45.00;;;;;;5051923;28;46407;-72
2023/08/15 00:03:40;;;;;;;24.47;11.07;;;20.70;45.00;;;;;;5063121;28;46446;-72
2023/08/15 00:06:06;;;;;;;19.20;10.57;;;20.70;45.00;;;;;;5067168;28;46518;-70
2023/08/15 00:08:32;;;;;;;17.30;9.50;;;20.70;45.20;;;;;;5060480;28;46535;-72
2023/08/15 00:10:57;;;;;;;18.13;9.20;;;20.60;45.30;;;;;;5063264;28;46398;-72
2023/08/15 00:13:23;;;;;;;13.50;8.80;;;20.60;45.50;;;;;;5067194;28;46590;-72
2023/08/15 00:15:48;;;;;;;11.27;8.80;;;20.70;45.50;;;;;;5059629;28;46455;-73
2023/08/15 00:18:14;;;;;;;10.97;8.50;;;20.60;45.70;;;;;;5056399;28;46478;-72
2023/08/15 00:20:40;;;;;;;10.77;8.60;;;20.70;46.10;;;;;;5063405;28;46480;-71
2023/08/15 00:23:06;;;;;;;12.33;7.70;;;20.70;46.30;;;;;;5059179;28;46900;-71
2023/08/15 00:25:31;;;;;;;14.13;9.03;;;20.70;46.90;;;;;;5064462;28;46399;-72
2023/08/15 00:27:57;;;;;;;11.53;8.40;;;20.70;47.10;;;;;;5059021;28;46373;-71
2023/08/15 00:30:22;;;;;;;12.97;8.67;;;20.70;47.60;;;;;;5056104;28;46364;-71
2023/08/15 00:32:48;;;;;;;13.63;7.37;;;20.60;48.30;;;;;;5062429;28;46870;-71
2023/08/15 00:35:13;;;;;;;12.60;7.40;;;20.50;48.20;;;;;;5062770;28;46443;-70
2023/08/15 00:37:39;;;;;;;13.37;7.50;;;20.30;47.90;;;;;;5063003;28;46780;-70
2023/08/15 00:40:06;;;;;;;15.53;6.60;;;20.20;48.40;;;;;;5062033;28;46415;-71
2023/08/15 00:42:31;;;;;;;10.60;7.07;;;20.10;49.40;;;;;;5056287;28;46432;-71
2023/08/15 00:44:57;;;;;;;8.60;6.37;;;20.00;49.80;;;;;;5062950;28;46542;-73
2023/08/15 00:47:23;;;;;;;13.07;7.57;;;19.90;50.30;;;;;;5065570;28;46618;-72
2023/08/15 00:49:50;;;;;;;10.97;6.60;;;19.90;49.70;;;;;;5065839;28;45941;-71
2023/08/15 00:52:17;;;;;;;11.83;6.53;;;19.80;49.60;;;;;;5062734;28;46822;-73
2023/08/15 00:54:49;;;;;;;9.33;6.07;;;19.80;49.60;;;;;;5062948;28;46756;-71
2023/08/15 00:57:15;;;;;;;10.43;6.90;;;19.80;49.50;;;;;;5062354;28;47003;-71
2023/08/15 00:59:43;;;;;;;11.73;7.40;;;19.70;49.40;;;;;;5055806;28;46794;-71
2023/08/15 01:02:09;;;;;;;10.77;7.37;;;19.70;49.50;;;;;;5060180;28;47475;-73
2023/08/15 01:04:36;;;;;;;12.50;7.70;;;19.60;49.50;;;;;;5056479;28;46585;-71
2023/08/15 01:07:02;;;;;;;9.37;7.13;;;19.60;49.60;;;;;;5056034;28;45827;-72
2023/08/15 01:09:28;;;;;;;14.20;7.20;;;19.60;49.60;;;;;;5065283;28;46476;-72
2023/08/15 01:12:19;;;;;;;15.10;7.30;;;19.60;49.60;;;;;;5055425;28;46196;-72
2023/08/15 01:15:04;;;;;;;10.20;7.07;;;19.50;49.80;;;;;;5062934;28;46591;-72
2023/08/15 01:17:44;;;;;;;10.33;7.13;;;19.60;49.60;;;;;;5055235;28;46595;-71
2023/08/15 01:20:21;;;;;;;8.63;6.77;;;19.60;49.40;;;;;;5061552;28;46490;-71
2023/08/15 01:22:47;;;;;;;12.77;6.60;;;19.60;49.20;;;;;;5056032;28;46470;-71
2023/08/15 01:25:13;;;;;;;8.43;6.53;;;19.60;48.90;;;;;;5060998;28;46679;-72
2023/08/15 01:27:39;;;;;;;10.50;6.57;;;19.60;49.00;;;;;;5041665;28;46432;-73
2023/08/15 01:30:05;;;;;;;7.83;6.10;;;19.50;48.90;;;;;;5062612;28;46481;-72
2023/08/15 01:32:48;;;;;;;9.93;6.60;;;19.50;49.10;;;;;;5068515;28;46379;-72
2023/08/15 01:35:24;;;;;;;12.10;7.50;;;19.50;49.30;;;;;;5062440;28;46745;-71
2023/08/15 01:38:01;;;;;;;8.80;7.40;;;19.40;49.20;;;;;;5062464;28;46545;-72
2023/08/15 01:40:29;;;;;;;17.43;7.23;;;19.30;49.50;;;;;;5057927;28;46511;-73
2023/08/15 01:42:57;;;;;;;13.00;6.50;;;19.30;49.50;;;;;;5058656;28;46438;-71
2023/08/15 01:45:24;;;;;;;10.53;6.03;;;19.30;49.60;;;;;;5059205;28;46523;-71
2023/08/15 01:47:51;;;;;;;11.10;7.40;;;19.30;49.50;;;;;;5060272;28;46614;-72
2023/08/15 01:50:17;;;;;;;11.03;6.70;;;19.30;49.40;;;;;;5065209;28;46466;-73
2023/08/15 01:52:42;;;;;;;9.50;6.17;;;19.30;49.40;;;;;;5061502;28;46077;-72
2023/08/15 01:55:08;;;;;;;12.43;6.63;;;19.30;49.40;;;;;;5058719;28;46713;-72
2023/08/15 01:57:34;;;;;;;19.53;6.77;;;19.30;49.40;;;;;;5059477;28;46421;-70
2023/08/15 02:00:00;;;;;;;11.70;6.73;;;19.40;49.20;;;;;;5061270;28;45820;-72
2023/08/15 02:02:25;;;;;;;14.13;6.70;;;19.40;48.90;;;;;;5057920;28;46526;-72
2023/08/15 02:04:51;;;;;;;13.10;7.70;;;19.50;48.90;;;;;;5059680;28;46011;-72
2023/08/15 02:07:16;;;;;;;12.57;7.67;;;19.50;48.80;;;;;;5060307;28;46431;-72
2023/08/15 02:09:42;;;;;;;10.13;7.50;;;19.60;48.60;;;;;;5049473;28;46419;-72
2023/08/15 02:12:08;;;;;;;11.13;6.80;;;19.60;48.40;;;;;;5062222;28;47418;-72
2023/08/15 02:14:33;;;;;;;10.13;7.47;;;19.70;48.50;;;;;;5063583;28;46455;-72
2023/08/15 02:16:59;;;;;;;9.20;7.40;;;19.70;48.40;;;;;;5058334;28;46951;-71
2023/08/15 02:19:25;;;;;;;13.70;6.70;;;19.70;48.40;;;;;;5058517;28;46729;-71
2023/08/15 02:21:51;;;;;;;9.77;6.70;;;19.70;48.60;;;;;;5060453;28;46699;-73
2023/08/15 02:24:16;;;;;;;7.97;6.63;;;19.80;47.50;;;;;;5062077;28;46434;-71
2023/08/15 02:26:42;;;;;;;11.00;7.13;;;19.80;48.50;;;;;;5059763;28;46415;-72
2023/08/15 02:29:08;;;;;;;11.00;6.80;;;19.80;48.50;;;;;;5057006;28;46422;-72
2023/08/15 02:31:33;;;;;;;9.50;6.90;;;19.80;48.30;;;;;;5059315;28;46565;-72
2023/08/15 02:33:59;;;;;;;10.50;7.00;;;19.80;48.40;;;;;;5048005;28;46394;-73
2023/08/15 02:36:24;;;;;;;15.10;5.80;;;19.80;48.40;;;;;;5058917;28;46550;-71
2023/08/15 02:38:50;;;;;;;12.73;6.00;;;19.80;48.30;;;;;;5059401;28;46490;-71
2023/08/15 02:41:16;;;;;;;10.13;6.83;;;19.80;48.30;;;;;;5067327;28;46488;-72
2023/08/15 02:43:42;;;;;;;12.07;6.80;;;19.80;48.50;;;;;;5063578;28;46427;-72
2023/08/15 02:46:07;;;;;;;8.77;5.73;;;19.70;48.60;;;;;;5057322;28;46814;-71
2023/08/15 02:48:33;;;;;;;10.77;7.30;;;19.70;48.70;;;;;;5051169;28;46768;-72
2023/08/15 02:50:58;;;;;;;15.23;7.20;;;19.70;48.60;;;;;;5063740;28;46343;-72
2023/08/15 02:53:24;;;;;;;11.20;7.10;;;19.70;48.50;;;;;;5063862;28;46481;-70
2023/08/15 02:55:51;;;;;;;11.33;7.50;;;19.70;48.50;;;;;;5066262;28;46419;-72
2023/08/15 02:58:17;;;;;;;13.13;7.13;;;19.70;48.40;;;;;;5055607;28;46675;-72
2023/08/15 03:00:43;;;;;;;10.13;6.93;;;19.70;48.50;;;;;;5064981;28;47122;-72
2023/08/15 03:03:08;;;;;;;8.37;6.60;;;19.80;48.60;;;;;;5058840;28;46460;-71
2023/08/15 03:05:37;;;;;;;10.90;7.00;;;19.70;48.60;;;;;;5058193;28;46453;-72
2023/08/15 03:08:03;;;;;;;11.73;7.40;;;19.80;48.60;;;;;;5054216;28;46547;-72
2023/08/15 03:10:28;;;;;;;10.10;6.30;;;19.80;48.30;;;;;;5059343;28;46765;-72
2023/08/15 03:12:54;;;;;;;16.60;7.27;;;19.70;48.20;;;;;;5059168;28;46839;-72
2023/08/15 03:15:19;;;;;;;8.93;5.77;;;19.80;48.40;;;;;;5055709;28;46461;-71
2023/08/15 03:17:45;;;;;;;8.63;6.13;;;19.70;48.60;;;;;;5055206;28;46457;-73
2023/08/15 03:20:12;;;;;;;9.10;6.20;;;19.70;48.90;;;;;;5054748;28;46456;-71
2023/08/15 03:22:37;;;;;;;12.27;5.90;;;19.70;48.90;;;;;;5049843;28;46466;-72
2023/08/15 03:25:03;;;;;;;7.73;5.90;;;19.70;48.70;;;;;;5057020;28;46547;-71
2023/08/15 03:27:29;;;;;;;8.80;5.70;;;19.80;48.50;;;;;;5057325;28;46568;-71
2023/08/15 03:29:54;;;;;;;9.80;5.80;;;19.80;48.10;;;;;;5060456;28;47214;-71
2023/08/15 03:32:20;;;;;;;9.60;6.20;;;19.80;47.80;;;;;;5051766;28;46727;-71
2023/08/15 03:34:46;;;;;;;6.83;5.50;;;19.80;47.50;;;;;;5062218;28;46532;-71
2023/08/15 03:37:11;;;;;;;11.83;5.23;;;19.80;47.50;;;;;;5067305;28;46401;-72
2023/08/15 03:39:37;;;;;;;7.83;5.30;;;19.80;47.50;;;;;;5061536;28;46917;-72
2023/08/15 03:42:03;;;;;;;8.93;5.70;;;19.80;47.50;;;;;;5065194;28;46726;-71
2023/08/15 03:44:28;;;;;;;6.80;5.30;;;19.80;47.50;;;;;;5064845;28;46510;-71
2023/08/15 03:46:54;;;;;;;10.53;6.10;;;19.80;47.50;;;;;;5046753;28;46802;-72
2023/08/15 03:49:19;;;;;;;12.80;5.53;;;19.80;47.50;;;;;;5064033;28;46470;-70
2023/08/15 03:51:45;;;;;;;8.70;5.63;;;19.80;47.50;;;;;;5064442;28;46343;-71
2023/08/15 03:54:11;;;;;;;10.37;5.70;;;19.80;47.60;;;;;;5065592;28;46781;-71
2023/08/15 03:56:36;;;;;;;8.13;5.80;;;19.80;47.50;;;;;;5060332;28;46784;-72
2023/08/15 03:59:02;;;;;;;6.97;5.50;;;19.70;47.40;;;;;;5065123;28;46470;-71
2023/08/15 04:01:28;;;;;;;7.07;5.87;;;19.60;47.20;;;;;;5059461;28;46623;-72
2023/08/15 04:03:55;;;;;;;9.33;5.77;;;19.60;47.20;;;;;;5066476;28;46653;-71
2023/08/15 04:06:21;;;;;;;7.63;5.53;;;19.70;47.40;;;;;;5056838;28;46584;-71
2023/08/15 04:08:47;;;;;;;10.10;5.60;;;19.70;47.40;;;;;;5065616;28;46270;-71
2023/08/15 04:11:12;;;;;;;11.00;6.07;;;19.70;47.40;;;;;;5062550;28;46773;-70
2023/08/15 04:13:38;;;;;;;8.67;5.50;;;19.70;47.30;;;;;;5056767;28;46454;-71
2023/08/15 04:16:04;;;;;;;8.57;5.80;;;19.80;47.50;;;;;;5061286;28;46686;-72
2023/08/15 04:18:29;;;;;;;11.57;5.27;;;19.80;47.10;;;;;;5065304;28;47464;-71
2023/08/15 04:20:55;;;;;;;7.27;5.33;;;19.80;46.80;;;;;;5060216;28;46354;-72
2023/08/15 04:23:21;;;;;;;8.03;5.00;;;19.80;46.70;;;;;;5058301;28;46441;-72
2023/08/15 04:25:47;;;;;;;10.07;4.90;;;19.80;46.60;;;;;;5057047;28;46492;-73
2023/08/15 04:28:12;;;;;;;8.97;4.87;;;19.80;46.50;;;;;;5059925;28;46482;-71
2023/08/15 04:30:38;;;;;;;8.03;5.10;;;19.90;46.60;;;;;;5065999;28;46378;-71
2023/08/15 04:33:04;;;;;;;10.10;5.00;;;19.90;46.40;;;;;;5062522;28;46364;-71
2023/08/15 04:35:29;;;;;;;9.83;5.27;;;19.90;46.10;;;;;;5058989;28;46740;-74
2023/08/15 04:37:55;;;;;;;7.87;4.90;;;19.90;45.90;;;;;;5060265;28;46602;-71
2023/08/15 04:40:32;;;;;;;8.30;5.23;;;20.00;45.60;;;;;;5061897;28;46776;-70
2023/08/15 04:42:58;;;;;;;7.23;5.40;;;20.20;45.20;;;;;;5064313;28;46730;-70
2023/08/15 04:45:24;;;;;;;7.77;5.00;;;20.20;45.00;;;;;;5057078;27;46483;-71
2023/08/15 04:47:50;;;;;;;6.20;5.20;;;20.20;45.10;;;;;;5061844;28;46494;-71
2023/08/15 04:50:15;;;;;;;5.97;4.73;;;20.20;45.20;;;;;;5065387;28;46861;-71
2023/08/15 04:52:41;;;;;;;7.60;5.10;;;20.30;45.10;;;;;;5061183;28;46591;-70
2023/08/15 04:55:10;;;;;;;10.13;5.43;;;20.40;44.70;;;;;;5060540;28;46520;-70
2023/08/15 04:57:37;;;;;;;7.73;5.60;;;20.50;44.10;;;;;;5061667;28;46691;-72
2023/08/15 05:00:08;;;;;;;7.07;5.30;;;20.60;43.70;;;;;;5062113;28;46515;-72
2023/08/15 05:02:37;;;;;;;11.07;4.43;;;20.70;43.30;;;;;;5060620;28;46155;-71
2023/08/15 05:05:09;;;;;;;6.70;4.93;;;20.80;42.80;;;;;;5062715;28;46324;-72
2023/08/15 05:07:35;;;;;;;6.97;5.07;;;21.40;41.90;;;;;;5029095;28;46568;-71
2023/08/15 05:10:00;;;;;;;8.20;4.53;;;22.10;41.20;;;;;;5059270;28;46508;-72
2023/08/15 05:12:26;;;;;;;7.03;4.03;;;22.80;39.70;;;;;;5045087;28;46538;-71
2023/08/15 05:14:52;;;;;;;5.00;4.00;;;23.50;37.20;;;;;;5060429;28;46523;-71
2023/08/15 05:17:17;;;;;;;10.43;4.30;;;24.10;35.90;;;;;;5054305;28;46510;-72
2023/08/15 05:19:43;;;;;;;6.83;4.17;;;24.60;33.90;;;;;;5059083;28;46366;-71
2023/08/15 05:22:09;;;;;;;6.20;4.07;;;24.90;32.50;;;;;;5059987;28;46813;-72
2023/08/15 05:24:34;;;;;;;9.23;3.97;;;25.40;30.70;;;;;;5057701;28;46763;-72
2023/08/15 05:27:00;;;;;;;6.70;4.43;;;25.80;29.40;;;;;;5058940;28;47316;-72
2023/08/15 05:29:26;;;;;;;10.23;3.50;;;26.10;28.20;;;;;;5044558;28;46379;-72
2023/08/15 05:31:51;;;;;;;11.70;3.97;;;26.60;26.90;;;;;;5060815;28;46340;-74
2023/08/15 05:34:17;;;;;;;5.60;3.80;;;26.90;25.50;;;;;;5061321;28;46423;-72
2023/08/15 05:36:43;;;;;;;7.73;4.10;;;27.30;24.30;;;;;;5059184;28;46775;-72
2023/08/15 05:39:08;;;;;;;7.87;3.60;;;27.60;23.30;;;;;;5060386;28;46703;-69
2023/08/15 05:41:34;;;;;;;8.40;4.00;;;28.00;22.00;;;;;;5061235;28;46604;-71
2023/08/15 05:44:00;;;;;;;7.17;3.67;;;28.50;20.70;;;;;;5057115;28;46609;-71
2023/08/15 05:46:25;;;;;;;9.90;4.27;;;29.00;19.40;;;;;;5063228;28;48438;-71
2023/08/15 05:48:51;;;;;;;6.73;3.77;;;29.40;17.90;;;;;;5039287;28;45881;-72
2023/08/15 05:51:16;;;;;;;4.80;3.33;;;29.70;16.80;;;;;;5060113;28;46504;-70
2023/08/15 05:53:42;;;;;;;5.63;3.60;;;30.10;15.50;;;;;;5062166;28;46467;-71
2023/08/15 05:56:07;;;;;;;6.90;3.77;;;30.40;14.40;;;;;;5055420;28;46472;-71
2023/08/15 05:58:33;;;;;;;5.47;3.80;;;30.70;13.60;;;;;;5058539;28;46609;-70
2023/08/15 06:00:59;;;;;;;4.60;3.50;;;31.00;12.60;;;;;;5061116;28;46504;-70
2023/08/15 06:03:25;;;;;;;7.50;3.57;;;31.10;12.10;;;;;;5061632;28;46490;-71
2023/08/15 06:05:50;;;;;;;5.63;3.80;;;31.30;11.70;;;;;;5053896;28;46696;-70
2023/08/15 06:08:16;;;;;;;13.33;3.67;;;31.40;11.10;;;;;;5044768;28;46496;-73
2023/08/15 06:13:09;;;;;;;8.10;2.93;;;31.80;9.40;;;;;;5058994;28;47435;-69
2023/08/15 06:15:35;;;;;;;5.50;3.53;;;32.30;8.30;;;;;;5060504;28;47106;-68
2023/08/15 06:18:00;;;;;;;5.23;3.20;;;32.60;7.50;;;;;;5058842;28;46703;-69
2023/08/15 06:20:26;;;;;;;7.63;3.47;;;32.80;7.00;;;;;;5060634;28;46406;-70
2023/08/15 06:22:52;;;;;;;5.53;3.03;;;32.80;6.60;;;;;;5060738;28;46768;-71
2023/08/15 06:25:17;;;;;;;4.60;3.10;;;32.70;6.50;;;;;;5059161;28;46654;-69
2023/08/15 06:27:43;;;;;;;6.13;3.20;;;32.70;5.70;;;;;;5052772;28;45894;-68
2023/08/15 06:30:09;;;;;;;6.00;3.23;;;33.00;4.70;;;;;;5041360;28;46202;-71
2023/08/15 06:32:34;;;;;;;4.07;2.63;;;33.30;3.70;;;;;;5053903;28;46748;-70
2023/08/15 06:35:03;;;;;;;4.10;2.80;;;33.10;4.10;;;;;;5059068;28;46596;-70
2023/08/15 06:37:29;;;;;;;4.40;2.90;;;31.80;7.10;;;;;;5058393;28;46587;-70
2023/08/15 06:39:54;;;;;;;4.50;3.13;;;30.90;8.20;;;;;;5059013;28;46427;-70
2023/08/15 06:42:20;;;;;;;7.17;3.40;;;30.20;9.50;;;;;;5054738;28;46368;-71
2023/08/15 06:44:45;;;;;;;7.03;3.57;;;30.20;9.30;;;;;;5055189;28;47048;-70
2023/08/15 06:47:11;;;;;;;6.13;3.80;;;31.20;6.80;;;;;;5059263;28;46570;-70
2023/08/15 06:49:37;;;;;;;5.67;3.50;;;32.10;5.20;;;;;;5055948;28;46588;-71
2023/08/15 06:52:03;;;;;;;7.17;3.57;;;32.80;4.00;;;;;;5055710;28;46510;-69
2023/08/15 06:54:29;;;;;;;5.83;3.27;;;33.20;2.80;;;;;;5053884;28;47287;-72
2023/08/15 06:56:54;;;;;;;5.50;3.33;;;33.50;2.00;;;;;;5055049;28;46973;-70
2023/08/15 06:59:23;;;;;;;5.20;3.60;;;33.50;2.00;;;;;;5058341;28;46603;-72
2023/08/15 07:01:50;;;;;;;5.23;3.63;;;32.70;4.20;;;;;;5055098;28;46528;-69
2023/08/15 07:04:16;;;;;;;7.77;3.57;;;31.40;6.90;;;;;;5059023;28;46652;-70
2023/08/15 07:06:41;;;;;;;7.37;4.00;;;30.60;9.10;;;;;;5041087;28;46643;-71
2023/08/15 07:09:07;;;;;;;8.20;3.90;;;30.10;10.40;;;;;;5062289;28;46192;-70
2023/08/15 07:11:32;;;;;;;6.90;4.10;;;29.50;11.60;;;;;;5063594;28;46122;-70
2023/08/15 07:13:58;;;;;;;6.63;3.47;;;29.40;12.10;;;;;;5058613;28;47505;-69
2023/08/15 07:16:24;;;;;;;6.30;3.70;;;29.30;12.40;;;;;;5060537;28;46491;-71
2023/08/15 07:18:50;;;;;;;6.17;3.60;;;29.10;12.80;;;;;;5059611;28;46477;-70
2023/08/15 07:21:16;;;;;;;6.73;4.37;;;29.10;13.20;;;;;;5056786;28;46462;-69
2023/08/15 07:23:41;;;;;;;8.50;3.70;;;29.00;13.50;;;;;;5062131;28;47694;-69
2023/08/15 07:26:07;;;;;;;6.20;3.73;;;29.00;13.70;;;;;;5047698;28;45937;-71
2023/08/15 07:28:33;;;;;;;6.37;3.83;;;29.20;13.50;;;;;;5056869;28;45936;-71
2023/08/15 07:30:59;;;;;;;4.87;3.40;;;29.40;13.00;;;;;;5058545;28;46526;-70
2023/08/15 07:33:25;;;;;;;5.50;3.93;;;29.30;13.00;;;;;;5058537;28;46606;-71
2023/08/15 07:35:50;;;;;;;7.90;3.73;;;29.20;13.10;;;;;;5060677;28;46217;-71
2023/08/15 07:38:16;;;;;;;8.17;4.50;;;29.20;13.10;;;;;;5055508;28;45947;-69
2023/08/15 07:40:42;;;;;;;6.70;3.53;;;29.40;13.20;;;;;;5061380;28;46482;-69
2023/08/15 07:43:07;;;;;;;8.53;4.63;;;29.30;13.50;;;;;;5056205;28;47274;-69
2023/08/15 07:45:33;;;;;;;13.60;5.10;;;29.30;13.60;;;;;;5054890;28;45914;-69
2023/08/15 07:47:58;;;;;;;8.10;4.83;;;29.20;13.80;;;;;;5057551;28;46592;-69
2023/08/15 07:50:27;;;;;;;7.70;4.07;;;28.90;14.40;;;;;;5056365;28;47015;-68
2023/08/15 07:52:54;;;;;;;9.40;3.77;;;28.90;14.80;;;;;;5060504;28;46510;-69
2023/08/15 07:55:21;;;;;;;6.60;3.90;;;28.90;15.10;;;;;;5059335;28;46601;-69
2023/08/15 07:57:47;;;;;;;6.83;3.63;;;28.90;15.10;;;;;;5059816;28;46490;-69
2023/08/15 08:00:14;;;;;;;5.50;4.07;;;29.10;14.70;;;;;;5056921;28;46372;-68
2023/08/15 08:02:41;;;;;;;8.47;4.20;;;29.00;14.80;;;;;;5060962;28;46529;-69
2023/08/15 08:05:09;;;;;;;6.43;4.10;;;29.10;15.00;;;;;;5058544;28;46463;-70
2023/08/15 08:07:34;;;;;;;6.13;4.30;;;29.30;14.80;;;;;;5063558;28;46499;-69
2023/08/15 08:10:00;;;;;;;11.40;4.90;;;29.50;14.60;;;;;;5058407;28;46506;-68
2023/08/15 08:12:27;;;;;;;12.33;4.67;;;29.60;14.30;;;;;;5061773;28;46419;-69
2023/08/15 08:14:52;;;;;;;5.87;4.30;;;29.80;14.10;;;;;;5056904;28;46439;-69
2023/08/15 08:17:18;;;;;;;7.63;4.50;;;29.90;14.00;;;;;;5056024;28;46502;-69
2023/08/15 08:19:43;;;;;;;9.27;4.30;;;29.80;14.00;;;;;;5060457;28;46719;-70
2023/08/15 08:22:09;;;;;;;9.40;4.77;;;30.00;14.10;;;;;;5060856;28;46544;-69
2023/08/15 08:24:35;;;;;;;6.27;3.40;;;30.20;14.20;;;;;;5064268;28;47532;-70
2023/08/15 08:27:00;;;;;;;7.80;4.63;;;30.50;14.80;;;;;;5057005;28;46472;-70
2023/08/15 08:29:26;;;;;;;10.80;4.77;;;30.70;13.50;;;;;;5063664;28;46498;-69
2023/08/15 08:31:51;;;;;;;6.73;4.07;;;30.80;13.00;;;;;;5062189;28;46557;-70
2023/08/15 08:34:17;;;;;;;6.40;3.90;;;30.90;12.60;;;;;;5063066;28;46429;-70
2023/08/15 08:36:43;;;;;;;8.57;4.90;;;30.80;12.90;;;;;;5058467;28;46443;-69
2023/08/15 08:39:11;;;;;;;7.13;4.17;;;30.80;12.80;;;;;;5067377;28;46524;-71
2023/08/15 08:41:37;;;;;;;9.93;4.00;;;30.80;12.70;;;;;;5057937;28;46429;-68
2023/08/15 08:44:03;;;;;;;8.87;4.70;;;30.80;12.50;;;;;;5056062;28;46407;-71
2023/08/15 08:46:29;;;;;;;8.23;4.57;;;30.80;12.70;;;;;;5060709;28;46442;-69
2023/08/15 08:48:57;;;;;;;9.20;3.97;;;30.80;12.50;;;;;;5058187;28;46787;-69
2023/08/15 08:51:24;;;;;;;5.90;3.80;;;30.80;12.60;;;;;;5061924;28;47384;-69
2023/08/15 08:53:50;;;;;;;10.87;3.90;;;30.90;12.20;;;;;;5060924;28;45846;-68
2023/08/15 08:56:17;;;;;;;6.80;4.10;;;31.00;11.00;;;;;;5061060;28;46716;-68
2023/08/15 08:58:48;;;;;;;6.07;3.80;;;31.30;10.40;;;;;;5030327;28;46524;-69
2023/08/15 09:01:14;;;;;;;6.70;3.57;;;31.50;10.00;;;;;;5058714;28;48196;-69
2023/08/15 09:03:40;;;;;;;10.47;4.23;;;31.40;9.50;;;;;;5059833;28;46478;-71
2023/08/15 09:06:06;;;;;;;8.33;4.37;;;31.10;9.30;;;;;;5058415;28;46318;-69
2023/08/15 09:08:32;;;;;;;7.07;4.03;;;31.00;9.50;;;;;;5059959;28;46399;-69
2023/08/15 09:10:58;;;;;;;12.63;3.73;;;30.90;9.50;;;;;;5058163;28;46646;-69
2023/08/15 09:13:23;;;;;;;9.13;3.70;;;30.80;9.40;;;;;;5045536;28;46453;-69
2023/08/15 09:15:51;;;;;;;10.97;3.93;;;30.60;9.40;;;;;;5059128;28;46483;-68
2023/08/15 09:18:22;;;;;;;6.43;3.93;;;30.40;9.60;;;;;;5061612;28;46508;-70
2023/08/15 09:20:48;;;;;;;10.73;3.60;;;30.20;9.40;;;;;;5058732;28;46734;-68
2023/08/15 09:23:16;;;;;;;6.47;4.03;;;30.20;10.00;;;;;;5061208;28;46624;-69
2023/08/15 09:25:41;;;;;;;7.90;4.23;;;30.40;10.20;;;;;;5062122;28;46450;-71
2023/08/15 09:28:07;;;;;;;6.80;4.13;;;30.50;10.50;;;;;;5050871;28;46745;-68
2023/08/15 09:30:33;;;;;;;9.83;4.10;;;30.70;10.70;;;;;;5059641;28;46815;-69
2023/08/15 09:33:00;;;;;;;7.30;3.80;;;30.70;11.10;;;;;;5061168;28;46427;-70
2023/08/15 09:35:26;;;;;;;9.47;3.63;;;30.50;10.40;;;;;;5062781;28;45893;-69
2023/08/15 09:37:52;;;;;;;5.97;3.97;;;30.50;10.50;;;;;;5060958;28;46676;-69
2023/08/15 09:40:23;;;;;;;7.30;3.87;;;30.60;10.50;;;;;;5059983;28;46513;-69
2023/08/15 09:42:49;;;;;;;7.17;3.57;;;30.60;10.10;;;;;;5057470;28;46504;-69
2023/08/15 09:45:15;;;;;;;9.20;3.87;;;30.60;9.30;;;;;;5055406;28;46529;-70
2023/08/15 09:47:43;;;;;;;11.63;4.30;;;30.50;8.70;;;;;;5056218;28;46560;-70
2023/08/15 09:50:11;;;;;;;6.53;3.40;;;30.60;8.80;;;;;;5059441;28;46706;-69
2023/08/15 09:52:42;;;;;;;9.70;3.70;;;30.70;8.30;;;;;;5058814;28;46482;-70
2023/08/15 09:55:14;;;;;;;11.83;3.43;;;30.80;7.70;;;;;;5055899;28;46750;-69
2023/08/15 09:57:42;;;;;;;7.70;3.77;;;30.90;7.00;;;;;;5056221;28;46726;-70
2023/08/15 10:00:12;;;;;;;11.20;3.30;;;30.80;7.50;;;;;;5051930;28;46033;-68
2023/08/15 10:02:44;;;;;;;6.27;3.13;;;30.90;6.60;;;;;;5053334;28;46426;-69
2023/08/15 10:05:12;;;;;;;8.90;3.47;;;30.80;5.60;;;;;;5057048;28;46827;-68
2023/08/15 10:07:41;;;;;;;9.27;3.80;;;30.80;5.30;;;;;;5057802;28;46670;-69
2023/08/15 10:10:08;;;;;;;8.37;3.70;;;30.80;4.50;;;;;;5056441;28;46418;-68
2023/08/15 10:12:36;;;;;;;7.97;3.10;;;30.80;4.20;;;;;;5064076;28;46446;-69
2023/08/15 10:15:03;;;;;;;13.80;3.47;;;30.90;4.60;;;;;;5053189;28;46561;-68
2023/08/15 10:17:29;;;;;;;8.60;3.30;;;30.80;1.60;;;;;;5053055;28;46444;-70
2023/08/15 10:20:00;;;;;;;10.53;3.23;;;30.80;1.80;;;;;;5060837;28;46257;-69
2023/08/15 10:22:26;;;;;;;7.13;3.03;;;30.70;1.00;;;;;;5059589;28;45930;-70
2023/08/15 10:24:54;;;;;;;16.33;3.30;;;30.50;1.00;;;;;;5059898;28;46476;-68
2023/08/15 10:27:20;;;;;;;8.47;3.20;;;30.50;1.00;;;;;;5058190;28;46344;-68
2023/08/15 10:30:26;;;;;;;8.73;3.23;;;30.60;1.00;;;;;;5059156;28;46510;-68
2023/08/15 10:32:52;;;;;;;8.33;3.20;;;30.70;1.60;;;;;;5055065;28;46450;-69
2023/08/15 10:35:27;;;;;;;10.00;3.30;;;30.70;1.00;;;;;;5056746;28;46483;-68
2023/08/15 10:37:56;;;;;;;7.57;3.07;;;30.90;1.00;;;;;;5059357;28;46617;-68
2023/08/15 10:40:36;;;;;;;10.60;3.10;;;31.00;1.00;;;;;;5061433;28;46654;-69
2023/08/15 10:43:06;;;;;;;8.93;3.30;;;31.20;1.00;;;;;;5037457;28;46462;-70
2023/08/15 10:45:38;;;;;;;8.87;3.47;;;31.30;1.00;;;;;;5066026;28;46806;-69
2023/08/15 10:48:04;;;;;;;12.13;3.47;;;31.40;1.00;;;;;;5064175;28;46281;-70
2023/08/15 10:50:29;;;;;;;8.57;3.20;;;31.50;1.00;;;;;;5065043;28;47099;-71
2023/08/15 10:53:02;;;;;;;7.17;2.77;;;31.60;1.00;;;;;;5067575;28;46697;-70
2023/08/15 10:55:29;;;;;;;10.50;3.80;;;31.80;1.00;;;;;;5060431;28;46469;-68
2023/08/15 10:57:58;;;;;;;11.00;3.50;;;32.00;1.00;;;;;;5064801;28;46308;-70
2023/08/15 11:00:25;;;;;;;8.53;3.30;;;32.00;1.00;;;;;;5065528;28;46110;-69
2023/08/15 11:02:51;;;;;;;10.27;3.53;;;32.00;1.00;;;;;;5064855;28;46689;-70
2023/08/15 11:05:19;;;;;;;9.70;3.27;;;31.90;1.00;;;;;;5062899;28;46437;-69
2023/08/15 11:07:45;;;;;;;8.37;3.83;;;32.00;1.00;;;;;;5066109;28;46551;-70
2023/08/15 11:10:13;;;;;;;6.40;3.10;;;31.90;1.00;;;;;;5065931;28;48116;-69
2023/08/15 11:12:49;;;;;;;8.13;3.57;;;32.10;1.00;;;;;;5063291;28;46427;-69
2023/08/15 11:15:16;;;;;;;10.10;4.03;;;32.20;1.00;;;;;;5064508;28;46356;-70
2023/08/15 11:17:47;;;;;;;8.70;3.03;;;31.90;1.00;;;;;;5062151;28;46574;-70
2023/08/15 11:20:13;;;;;;;6.23;3.10;;;31.90;1.00;;;;;;5064119;28;46788;-69
2023/08/15 11:22:40;;;;;;;8.47;3.23;;;31.90;1.00;;;;;;5068654;28;46629;-69
2023/08/15 11:25:08;;;;;;;15.60;3.53;;;31.90;1.00;;;;;;5062307;28;46687;-69
2023/08/15 11:27:40;;;;;;;7.07;3.23;;;31.90;1.00;;;;;;5066426;28;46442;-70
2023/08/15 11:30:07;;;;;;;11.60;3.10;;;31.70;1.00;;;;;;5063295;28;46480;-69
2023/08/15 11:32:34;;;;;;;13.73;3.80;;;31.60;1.00;;;;;;5068051;28;46508;-69
2023/08/15 11:35:00;;;;;;;8.23;3.70;;;31.40;1.00;;;;;;5061259;28;46798;-70
2023/08/15 11:37:25;;;;;;;7.70;3.57;;;31.30;1.20;;;;;;5061745;28;46782;-70
2023/08/15 11:39:54;;;;;;;7.40;3.40;;;31.20;1.20;;;;;;5068841;28;46483;-70
2023/08/15 11:42:20;;;;;;;10.60;3.40;;;31.20;1.60;;;;;;5064704;28;46427;-69
2023/08/15 11:44:46;;;;;;;8.67;3.50;;;31.30;1.30;;;;;;5063775;28;46721;-70
2023/08/15 11:47:14;;;;;;;8.47;4.13;;;31.10;1.00;;;;;;5064507;28;46579;-69
2023/08/15 11:49:40;;;;;;;11.80;3.77;;;31.10;1.20;;;;;;5061486;28;47902;-68
2023/08/15 11:52:06;;;;;;;8.63;3.33;;;30.90;1.90;;;;;;5063627;28;46359;-69
2023/08/15 11:54:31;;;;;;;7.33;3.80;;;30.90;2.10;;;;;;5066038;28;45905;-70
2023/08/15 11:56:57;;;;;;;8.10;3.90;;;30.80;1.00;;;;;;5055737;28;46616;-69
2023/08/15 11:59:23;;;;;;;7.03;3.53;;;30.50;1.00;;;;;;5058582;28;46759;-69
2023/08/15 12:01:49;;;;;;;12.90;3.60;;;30.40;1.00;;;;;;5062641;28;46422;-70
2023/08/15 12:04:18;;;;;;;7.53;3.60;;;30.50;1.00;;;;;;5056580;28;46827;-68
2023/08/15 12:06:44;;;;;;;6.67;3.13;;;30.40;1.30;;;;;;5062413;28;46469;-68
2023/08/15 12:09:11;;;;;;;10.00;2.73;;;30.50;1.20;;;;;;5057476;28;46489;-68
2023/08/15 12:11:37;;;;;;;10.63;3.20;;;30.50;1.00;;;;;;5056985;28;46724;-69
2023/08/15 12:14:03;;;;;;;11.83;3.80;;;30.70;1.00;;;;;;5057593;28;46753;-68
2023/08/15 12:16:30;;;;;;;7.47;3.47;;;30.60;1.00;;;;;;5061982;28;46501;-70
2023/08/15 12:18:56;;;;;;;6.77;3.13;;;30.70;1.00;;;;;;5064535;28;46485;-70
2023/08/15 12:21:22;;;;;;;6.00;3.17;;;30.80;1.00;;;;;;5057822;28;46696;-68
2023/08/15 12:23:48;;;;;;;9.47;3.03;;;30.70;1.00;;;;;;5064915;28;46787;-68
2023/08/15 12:26:13;;;;;;;12.00;3.70;;;30.80;1.00;;;;;;5060215;28;46471;-68
2023/08/15 12:28:39;;;;;;;12.87;3.70;;;30.60;1.00;;;;;;5055086;28;46506;-70
2023/08/15 12:31:05;;;;;;;8.90;4.03;;;30.60;1.00;;;;;;5063546;28;47154;-69
2023/08/15 12:33:33;;;;;;;15.27;4.30;;;30.50;1.00;;;;;;5056440;28;46394;-69
2023/08/15 12:35:59;;;;;;;8.70;3.47;;;30.60;1.00;;;;;;5059871;28;46546;-69
2023/08/15 12:38:25;;;;;;;11.50;4.27;;;30.60;1.00;;;;;;5060141;28;46982;-70
2023/08/15 12:40:51;;;;;;;9.93;3.87;;;30.60;1.20;;;;;;5058807;28;46424;-68
2023/08/15 12:43:17;;;;;;;10.60;3.73;;;30.70;1.70;;;;;;5057512;28;46428;-70
2023/08/15 12:45:42;;;;;;;8.90;3.60;;;30.60;1.70;;;;;;5061823;28;46660;-71